Detall de PIREP

Printer-friendly versionPDF version

[2011/06/23 07:19:00]
Flight IATA:CT1004
Pilot Number:011
Company ICAO:CAT
Aircraft Type:B463/A
PAX:100
Departing Airport: LEVC
Destination Airport: LFMP
Alternate Airport:LFBO
Online: VATSIM
Route:SOPET UM985 BCN UN870 DALIN/N0300F240 A67 BGR/N0300F180 A27 KANIG
Flight Level:F280
No Slew and time accel
No pause
Crash detect
Detect pilot in Cockpit between each 30 and 45 minutes
07:19 Zero fuel Weight: 84502 Lbs, Fuel Weight: 10352 Lbs
07:19 VATSIM:LEVC 230630Z 06008KT 9999 FEW020 BKN035 24/18 Q1018 NOSIG
07:19 VATSIM:LFMP 230700Z 31011KT 280V340 9999 FEW026 SCT046 20/14 Q1019 NOSIG
07:25 Parking Brakes off
07:35 Take-off
07:35 Take off Weight: 94265 Lbs
07:35 Wind: 073º @ 009 Knots Heading: 113º
07:35 POS N39º 29´ 21´´ W000º 28´ 52´´
07:35 Flaps:3 at 153 Knots
07:35 Gear Up: 154 Knots
07:35 Flaps:2 at 213 Knots
07:36 Flaps:1 at 224 Knots
07:36 Flaps:0 at 226 Knots
07:50 Wind:044º@015 Knots Heading: 046º Ground Speed: 392 Knots Altitude 23159 ft
07:54 TOC
07:54 Fuel Weight: 6928 Lb
08:05 Wind:314º@022 Knots Heading: 063º Ground Speed: 440 Knots Altitude 28166 ft
08:05 TOD
08:05 Fuel Weight: 5740 Lb
08:20 Wind:309º@018 Knots Heading: 342º Ground Speed: 230 Knots Altitude 4012 ft
08:22 Flaps:2 at 206 Knots
08:23 Flaps:3 at 183 Knots
08:23 Gear Down: 166 Knots
08:23 Flaps:4 at 162 Knots
08:24 Flaps:5 at 145 Knots
08:24 Flaps:6 at 132 Knots
08:28 TouchDown:Rate -156 ft/min Speed: 120 Knots
08:28 VATSIM:LFMP 230800Z 31011KT 9999 FEW026 BKN050 21/14 Q1019 NOSIG
08:28 Land
08:28 Wind:312º@011 Knots
08:28 Heading: 331º
08:28 Flight Duration: 00:53
08:28 Landing Weight: 89132 Lbs
08:28 POS N42º 44´ 41´´ E002º 52´ 09´´
08:33 Parking brakes on
08:33 Block to Block Duration: 01:08
08:33 Final Fuel: 4415 Lbls
08:33 Spent Fuel: 5936 Lbls
08:33 Flight Length: 294 NM
08:33 TOD Land Length: 106 NM

Exportar CSV

Powered by Drupal - Modified by Danger4k